Airfield :
LOGIN :

Register | Disclaimer

   EN    FR    IT 

 










Legend :    VFR   Marginal VFR   IFR   Intensive IFR   Very Intensive IFR
Visi :
Ceiling :
>= 8 km
>= 3000ft
5 to 8 km
1000 to 3000 ft
1500m to 5 km
500 to 1000 ft
800 to 1500m
200 to 500 ft
< 800m
< 200 ft
Symbols :   Thunderstorms  Fog  Heavy snow  Heavy precipitations  Wind > 20 kt
SIGMETs :     Misc.  Thunderstorms  Icing  Turbulence  Mountain Waves  Volcanic Ashes






- Airport Elevation : 755 ft
- IATA code : DRS


EDDC - Dresden Klotzsche

CURRENT METAR :
  • 150450Z 32005KT 9999 FEW045 M00/M03 Q1026 NOSIG

EXPIRED METARs :
  • 150420Z 30004KT 9999 FEW045 M00/M03 Q1025 NOSIG
  • 150350Z 31005KT 9999 SCT045 00/M03 Q1025 NOSIG
  • 150320Z 31005KT 9999 SCT040 01/M02 Q1025
  • 150250Z 31005KT 9999 BKN040 01/M02 Q1025
  • 150220Z 31005KT 9999 BKN046 01/M02 Q1025

TAF TAF EDDC
Valid from the 15 at 00:00 until the 16 at 00:00 UTC


142300Z 1500/1524 32004KT 9999 SCT020
BECMG 1507/1509 33009KT
TEMPO 1513/1520 4000 SNRA
BECMG 1519/1521 BKN010
TEMPO 1521/1524 1300 SNRA BKN006



MET'MAP, your aeronautical weather chart ! - Copyright ORBIFLY December 2007 - Disclaimer

ORBIFLY MET'MAP TEAM :

Programming & Development : Alexandra Zaïnal
Concept & original design : Baudouin d'Aumeries
Assistance for programming : Marc-Olivier Méhu
Technical & hardware support : Manuel Goepfert

Contact : metmap@orbifly.com




SOURCES & CREDITS :

   NOAA